sensor_id;sensor_type;location;lat;lon;timestamp;pressure;altitude;pressure_sealevel;temperature;humidity
49723;BME280;43484;43.608;1.458;2024-02-26T00:00:31;97848.09;;;8.20;100.00
49723;BME280;43484;43.608;1.458;2024-02-26T00:02:58;97843.78;;;8.16;100.00
49723;BME280;43484;43.608;1.458;2024-02-26T00:05:25;97852.31;;;8.21;100.00
49723;BME280;43484;43.608;1.458;2024-02-26T00:07:52;97854.84;;;8.15;100.00
49723;BME280;43484;43.608;1.458;2024-02-26T00:10:18;97851.50;;;8.20;100.00
49723;BME280;43484;43.608;1.458;2024-02-26T00:12:45;97844.78;;;8.27;100.00
49723;BME280;43484;43.608;1.458;2024-02-26T00:15:12;97847.34;;;8.30;100.00
49723;BME280;43484;43.608;1.458;2024-02-26T00:17:38;97843.94;;;8.32;100.00
49723;BME280;43484;43.608;1.458;2024-02-26T00:20:06;97836.28;;;8.31;100.00
49723;BME280;43484;43.608;1.458;2024-02-26T00:22:36;97830.28;;;8.26;100.00
49723;BME280;43484;43.608;1.458;2024-02-26T00:25:03;97836.25;;;8.28;100.00
49723;BME280;43484;43.608;1.458;2024-02-26T00:27:30;97831.13;;;8.23;100.00
49723;BME280;43484;43.608;1.458;2024-02-26T00:29:57;97834.44;;;8.13;100.00
49723;BME280;43484;43.608;1.458;2024-02-26T00:32:23;97830.22;;;8.17;100.00
49723;BME280;43484;43.608;1.458;2024-02-26T00:34:50;97812.34;;;8.14;100.00
49723;BME280;43484;43.608;1.458;2024-02-26T00:37:17;97802.09;;;8.06;100.00
49723;BME280;43484;43.608;1.458;2024-02-26T00:39:43;97805.53;;;8.11;100.00
49723;BME280;43484;43.608;1.458;2024-02-26T00:42:11;97796.19;;;8.16;100.00
49723;BME280;43484;43.608;1.458;2024-02-26T00:44:37;97786.00;;;8.18;100.00
49723;BME280;43484;43.608;1.458;2024-02-26T00:47:04;97780.13;;;8.23;100.00
49723;BME280;43484;43.608;1.458;2024-02-26T00:49:31;97777.53;;;8.20;100.00
49723;BME280;43484;43.608;1.458;2024-02-26T00:51:57;97779.31;;;8.29;100.00
49723;BME280;43484;43.608;1.458;2024-02-26T00:54:24;97777.53;;;8.22;100.00
49723;BME280;43484;43.608;1.458;2024-02-26T00:56:51;97785.19;;;8.22;100.00
49723;BME280;43484;43.608;1.458;2024-02-26T00:59:17;97789.53;;;8.29;100.00
49723;BME280;43484;43.608;1.458;2024-02-26T01:01:44;97784.44;;;8.29;100.00
49723;BME280;43484;43.608;1.458;2024-02-26T01:04:10;97781.78;;;8.21;100.00
49723;BME280;43484;43.608;1.458;2024-02-26T01:06:38;97786.00;;;8.13;100.00
49723;BME280;43484;43.608;1.458;2024-02-26T01:09:05;97780.03;;;8.14;100.00
49723;BME280;43484;43.608;1.458;2024-02-26T01:11:32;97780.91;;;8.16;100.00
49723;BME280;43484;43.608;1.458;2024-02-26T01:13:59;97785.16;;;8.17;100.00
49723;BME280;43484;43.608;1.458;2024-02-26T01:16:26;97765.53;;;8.07;100.00
49723;BME280;43484;43.608;1.458;2024-02-26T01:18:55;97759.59;;;8.04;100.00
49723;BME280;43484;43.608;1.458;2024-02-26T01:21:21;97756.16;;;8.00;100.00
49723;BME280;43484;43.608;1.458;2024-02-26T01:23:48;97754.44;;;7.99;100.00
49723;BME280;43484;43.608;1.458;2024-02-26T01:26:15;97755.28;;;7.95;100.00
49723;BME280;43484;43.608;1.458;2024-02-26T01:28:41;97749.31;;;7.90;100.00
49723;BME280;43484;43.608;1.458;2024-02-26T01:31:09;97762.88;;;7.88;100.00
49723;BME280;43484;43.608;1.458;2024-02-26T01:33:36;97746.72;;;7.87;100.00
49723;BME280;43484;43.608;1.458;2024-02-26T01:36:04;97742.53;;;7.94;100.00
49723;BME280;43484;43.608;1.458;2024-02-26T01:38:30;97750.09;;;7.82;100.00
49723;BME280;43484;43.608;1.458;2024-02-26T01:40:57;97743.28;;;7.81;100.00
49723;BME280;43484;43.608;1.458;2024-02-26T01:43:24;97745.78;;;7.70;100.00
49723;BME280;43484;43.608;1.458;2024-02-26T01:45:50;97741.56;;;7.74;100.00
49723;BME280;43484;43.608;1.458;2024-02-26T01:48:17;97745.78;;;7.73;100.00
49723;BME280;43484;43.608;1.458;2024-02-26T01:50:44;97746.69;;;7.78;100.00
49723;BME280;43484;43.608;1.458;2024-02-26T01:53:11;97744.06;;;7.69;100.00
49723;BME280;43484;43.608;1.458;2024-02-26T01:55:39;97745.69;;;7.61;100.00
49723;BME280;43484;43.608;1.458;2024-02-26T01:58:05;97738.84;;;7.55;100.00
49723;BME280;43484;43.608;1.458;2024-02-26T02:00:32;97744.78;;;7.53;100.00
49723;BME280;43484;43.608;1.458;2024-02-26T02:03:00;97740.50;;;7.50;100.00
49723;BME280;43484;43.608;1.458;2024-02-26T02:05:27;97732.88;;;7.49;100.00
49723;BME280;43484;43.608;1.458;2024-02-26T02:07:54;97737.06;;;7.41;100.00
49723;BME280;43484;43.608;1.458;2024-02-26T02:10:20;97732.84;;;7.47;100.00
49723;BME280;43484;43.608;1.458;2024-02-26T02:12:52;97726.00;;;7.40;100.00
49723;BME280;43484;43.608;1.458;2024-02-26T02:15:18;97727.66;;;7.37;100.00
49723;BME280;43484;43.608;1.458;2024-02-26T02:17:46;97727.63;;;7.32;100.00
49723;BME280;43484;43.608;1.458;2024-02-26T02:20:16;97729.38;;;7.35;100.00
49723;BME280;43484;43.608;1.458;2024-02-26T02:22:45;97673.34;;;7.35;100.00
49723;BME280;43484;43.608;1.458;2024-02-26T02:25:12;97618.13;;;7.31;100.00
49723;BME280;43484;43.608;1.458;2024-02-26T02:27:39;97611.31;;;7.28;100.00
49723;BME280;43484;43.608;1.458;2024-02-26T02:30:07;97616.47;;;7.34;100.00
49723;BME280;43484;43.608;1.458;2024-02-26T02:32:37;97608.03;;;7.49;100.00
49723;BME280;43484;43.608;1.458;2024-02-26T02:35:06;97600.41;;;7.52;100.00
49723;BME280;43484;43.608;1.458;2024-02-26T02:37:33;97607.25;;;7.57;100.00
49723;BME280;43484;43.608;1.458;2024-02-26T02:40:00;97614.00;;;7.51;100.00
49723;BME280;43484;43.608;1.458;2024-02-26T02:42:27;97612.34;;;7.60;100.00
49723;BME280;43484;43.608;1.458;2024-02-26T02:44:54;97627.63;;;7.60;100.00
49723;BME280;43484;43.608;1.458;2024-02-26T02:47:21;97632.72;;;7.57;100.00
49723;BME280;43484;43.608;1.458;2024-02-26T02:49:47;97630.97;;;7.49;100.00
49723;BME280;43484;43.608;1.458;2024-02-26T02:52:14;97637.81;;;7.56;100.00
49723;BME280;43484;43.608;1.458;2024-02-26T02:54:41;97636.06;;;7.52;100.00
49723;BME280;43484;43.608;1.458;2024-02-26T02:57:09;97639.50;;;7.54;100.00
49723;BME280;43484;43.608;1.458;2024-02-26T02:59:37;97638.63;;;7.50;100.00
49723;BME280;43484;43.608;1.458;2024-02-26T03:02:03;97644.59;;;7.52;100.00
49723;BME280;43484;43.608;1.458;2024-02-26T03:04:31;97639.50;;;7.54;100.00
49723;BME280;43484;43.608;1.458;2024-02-26T03:06:58;97645.47;;;7.62;100.00
49723;BME280;43484;43.608;1.458;2024-02-26T03:09:25;97634.53;;;7.75;100.00
49723;BME280;43484;43.608;1.458;2024-02-26T03:11:51;97629.50;;;7.89;100.00
49723;BME280;43484;43.608;1.458;2024-02-26T03:14:18;97613.34;;;7.84;100.00
49723;BME280;43484;43.608;1.458;2024-02-26T03:16:45;97612.47;;;7.80;100.00
49723;BME280;43484;43.608;1.458;2024-02-26T03:19:14;97603.09;;;7.79;100.00
49723;BME280;43484;43.608;1.458;2024-02-26T03:21:41;97601.47;;;7.99;100.00
49723;BME280;43484;43.608;1.458;2024-02-26T03:24:08;97593.00;;;8.03;100.00
49723;BME280;43484;43.608;1.458;2024-02-26T03:26:37;97589.66;;;8.12;100.00
49723;BME280;43484;43.608;1.458;2024-02-26T03:29:04;97576.97;;;8.27;100.00
49723;BME280;43484;43.608;1.458;2024-02-26T03:31:31;97551.47;;;8.27;100.00
49723;BME280;43484;43.608;1.458;2024-02-26T03:33:58;97525.09;;;8.25;100.00
49723;BME280;43484;43.608;1.458;2024-02-26T03:36:25;97514.88;;;8.20;100.00
49723;BME280;43484;43.608;1.458;2024-02-26T03:38:52;97502.09;;;8.16;100.00
49723;BME280;43484;43.608;1.458;2024-02-26T03:41:18;97487.66;;;8.19;100.00
49723;BME280;43484;43.608;1.458;2024-02-26T03:43:45;97474.09;;;8.26;100.00
49723;BME280;43484;43.608;1.458;2024-02-26T03:46:11;97458.78;;;8.28;100.00
49723;BME280;43484;43.608;1.458;2024-02-26T03:48:41;97448.59;;;8.28;100.00
49723;BME280;43484;43.608;1.458;2024-02-26T03:51:08;97440.94;;;8.34;100.00
49723;BME280;43484;43.608;1.458;2024-02-26T03:53:36;97421.38;;;8.39;100.00
49723;BME280;43484;43.608;1.458;2024-02-26T03:56:04;97406.06;;;8.37;100.00
49723;BME280;43484;43.608;1.458;2024-02-26T03:58:31;97382.25;;;8.46;100.00
49723;BME280;43484;43.608;1.458;2024-02-26T04:00:59;97371.19;;;8.50;100.00
49723;BME280;43484;43.608;1.458;2024-02-26T04:03:26;97362.69;;;8.54;100.00
49723;BME280;43484;43.608;1.458;2024-02-26T04:05:53;97369.47;;;8.58;100.00
49723;BME280;43484;43.608;1.458;2024-02-26T04:08:20;97351.53;;;8.85;100.00
49723;BME280;43484;43.608;1.458;2024-02-26T04:10:47;97343.03;;;8.81;100.00
49723;BME280;43484;43.608;1.458;2024-02-26T04:13:13;97333.69;;;8.79;100.00
49723;BME280;43484;43.608;1.458;2024-02-26T04:15:41;97323.44;;;8.85;100.00
49723;BME280;43484;43.608;1.458;2024-02-26T04:18:07;97315.78;;;8.86;100.00
49723;BME280;43484;43.608;1.458;2024-02-26T04:20:35;97307.28;;;8.83;100.00
49723;BME280;43484;43.608;1.458;2024-02-26T04:23:03;97308.94;;;8.92;100.00
49723;BME280;43484;43.608;1.458;2024-02-26T04:25:29;97304.66;;;8.97;100.00
49723;BME280;43484;43.608;1.458;2024-02-26T04:27:56;97305.53;;;8.94;100.00
49723;BME280;43484;43.608;1.458;2024-02-26T04:30:23;97308.88;;;9.05;100.00
49723;BME280;43484;43.608;1.458;2024-02-26T04:32:49;97288.31;;;9.25;100.00
49723;BME280;43484;43.608;1.458;2024-02-26T04:35:16;97288.31;;;9.25;100.00
49723;BME280;43484;43.608;1.458;2024-02-26T04:37:43;97306.19;;;9.32;100.00
49723;BME280;43484;43.608;1.458;2024-02-26T04:40:10;97289.94;;;9.42;100.00
49723;BME280;43484;43.608;1.458;2024-02-26T04:42:36;97313.75;;;9.43;100.00
49723;BME280;43484;43.608;1.458;2024-02-26T04:45:03;97324.84;;;9.43;100.00
49723;BME280;43484;43.608;1.458;2024-02-26T04:47:30;97340.13;;;9.46;100.00
49723;BME280;43484;43.608;1.458;2024-02-26T04:49:56;97350.31;;;9.54;100.00
49723;BME280;43484;43.608;1.458;2024-02-26T04:52:23;97376.66;;;9.69;100.00
49723;BME280;43484;43.608;1.458;2024-02-26T04:54:50;97397.97;;;9.58;100.00
49723;BME280;43484;43.608;1.458;2024-02-26T04:57:17;97411.69;;;9.49;100.00
49723;BME280;43484;43.608;1.458;2024-02-26T04:59:45;97413.38;;;9.49;100.00
49723;BME280;43484;43.608;1.458;2024-02-26T05:02:13;97419.22;;;9.70;100.00
49723;BME280;43484;43.608;1.458;2024-02-26T05:04:40;97428.69;;;9.59;100.00
49723;BME280;43484;43.608;1.458;2024-02-26T05:07:06;97442.31;;;9.57;100.00
49723;BME280;43484;43.608;1.458;2024-02-26T05:09:34;97453.47;;;9.42;100.00
49723;BME280;43484;43.608;1.458;2024-02-26T05:12:01;97454.28;;;9.49;100.00
49723;BME280;43484;43.608;1.458;2024-02-26T05:14:28;97456.03;;;9.39;100.00
49723;BME280;43484;43.608;1.458;2024-02-26T05:16:55;97446.69;;;9.32;100.00
49723;BME280;43484;43.608;1.458;2024-02-26T05:19:22;97444.97;;;9.33;100.00
49723;BME280;43484;43.608;1.458;2024-02-26T05:21:49;97456.91;;;9.25;100.00
49723;BME280;43484;43.608;1.458;2024-02-26T05:24:17;97462.88;;;9.34;100.00
49723;BME280;43484;43.608;1.458;2024-02-26T05:26:45;97459.41;;;9.43;100.00
49723;BME280;43484;43.608;1.458;2024-02-26T05:29:11;97473.06;;;9.36;100.00
49723;BME280;43484;43.608;1.458;2024-02-26T05:31:38;97467.97;;;9.30;100.00
49723;BME280;43484;43.608;1.458;2024-02-26T05:34:05;97477.34;;;9.29;100.00
49723;BME280;43484;43.608;1.458;2024-02-26T05:36:32;97462.03;;;9.25;100.00
49723;BME280;43484;43.608;1.458;2024-02-26T05:39:00;97468.84;;;9.24;100.00
49723;BME280;43484;43.608;1.458;2024-02-26T05:41:27;97480.78;;;9.24;100.00
49723;BME280;43484;43.608;1.458;2024-02-26T05:43:53;97479.03;;;9.30;100.00
49723;BME280;43484;43.608;1.458;2024-02-26T05:46:21;97472.25;;;9.23;100.00
49723;BME280;43484;43.608;1.458;2024-02-26T05:48:52;97473.13;;;9.22;100.00
49723;BME280;43484;43.608;1.458;2024-02-26T05:51:19;97479.94;;;9.16;100.00
49723;BME280;43484;43.608;1.458;2024-02-26T05:53:46;97478.22;;;9.16;100.00
49723;BME280;43484;43.608;1.458;2024-02-26T05:56:14;97485.88;;;9.16;100.00
49723;BME280;43484;43.608;1.458;2024-02-26T05:58:40;97479.09;;;9.14;100.00
49723;BME280;43484;43.608;1.458;2024-02-26T06:01:07;97480.78;;;9.15;100.00
49723;BME280;43484;43.608;1.458;2024-02-26T06:03:34;97489.28;;;9.20;100.00
49723;BME280;43484;43.608;1.458;2024-02-26T06:06:00;97499.53;;;9.17;100.00
49723;BME280;43484;43.608;1.458;2024-02-26T06:08:27;97490.19;;;9.14;100.00
49723;BME280;43484;43.608;1.458;2024-02-26T06:10:54;97503.78;;;9.12;100.00
49723;BME280;43484;43.608;1.458;2024-02-26T06:13:20;97509.75;;;9.14;100.00
49723;BME280;43484;43.608;1.458;2024-02-26T06:15:47;97519.13;;;9.06;100.00
49723;BME280;43484;43.608;1.458;2024-02-26T06:18:14;97520.81;;;9.08;100.00
49723;BME280;43484;43.608;1.458;2024-02-26T06:20:41;97542.09;;;9.03;100.00
49723;BME280;43484;43.608;1.458;2024-02-26T06:23:07;97541.25;;;9.05;100.00
49723;BME280;43484;43.608;1.458;2024-02-26T06:25:34;97550.59;;;9.08;100.00
49723;BME280;43484;43.608;1.458;2024-02-26T06:28:01;97548.94;;;9.04;100.00
49723;BME280;43484;43.608;1.458;2024-02-26T06:30:27;97572.75;;;9.12;100.00
49723;BME280;43484;43.608;1.458;2024-02-26T06:32:54;97579.53;;;9.23;100.00
49723;BME280;43484;43.608;1.458;2024-02-26T06:35:21;97631.47;;;9.18;100.00
49723;BME280;43484;43.608;1.458;2024-02-26T06:37:48;97633.19;;;9.17;100.00
49723;BME280;43484;43.608;1.458;2024-02-26T06:40:17;97642.56;;;9.14;100.00
49723;BME280;43484;43.608;1.458;2024-02-26T06:42:43;97641.72;;;9.06;100.00
49723;BME280;43484;43.608;1.458;2024-02-26T06:45:14;97651.91;;;9.03;100.00
49723;BME280;43484;43.608;1.458;2024-02-26T06:47:40;97662.13;;;9.00;100.00
49723;BME280;43484;43.608;1.458;2024-02-26T06:50:08;97657.03;;;8.95;100.00
49723;BME280;43484;43.608;1.458;2024-02-26T06:52:35;97657.03;;;8.91;100.00
49723;BME280;43484;43.608;1.458;2024-02-26T06:55:01;97656.16;;;8.96;100.00
49723;BME280;43484;43.608;1.458;2024-02-26T06:57:28;97664.69;;;8.94;100.00
49723;BME280;43484;43.608;1.458;2024-02-26T06:59:55;97689.34;;;8.95;100.00
49723;BME280;43484;43.608;1.458;2024-02-26T07:02:22;97702.97;;;8.94;100.00
49723;BME280;43484;43.608;1.458;2024-02-26T07:04:48;97720.00;;;8.92;100.00
49723;BME280;43484;43.608;1.458;2024-02-26T07:07:15;97724.28;;;8.96;100.00
49723;BME280;43484;43.608;1.458;2024-02-26T07:09:44;97731.91;;;8.91;100.00
49723;BME280;43484;43.608;1.458;2024-02-26T07:12:11;97723.41;;;8.89;100.00
49723;BME280;43484;43.608;1.458;2024-02-26T07:14:37;97728.47;;;8.87;100.00
49723;BME280;43484;43.608;1.458;2024-02-26T07:17:04;97742.13;;;8.97;100.00
49723;BME280;43484;43.608;1.458;2024-02-26T07:19:30;97749.81;;;8.97;100.00
49723;BME280;43484;43.608;1.458;2024-02-26T07:21:58;97760.84;;;8.95;100.00
49723;BME280;43484;43.608;1.458;2024-02-26T07:24:24;97786.41;;;9.07;100.00
49723;BME280;43484;43.608;1.458;2024-02-26T07:26:51;97803.44;;;9.02;100.00
49723;BME280;43484;43.608;1.458;2024-02-26T07:29:18;97798.31;;;8.97;100.00
49723;BME280;43484;43.608;1.458;2024-02-26T07:31:45;97817.91;;;9.04;100.00
49723;BME280;43484;43.608;1.458;2024-02-26T07:34:11;97829.84;;;9.08;100.00
49723;BME280;43484;43.608;1.458;2024-02-26T07:36:38;97818.75;;;9.05;100.00
49723;BME280;43484;43.608;1.458;2024-02-26T07:39:05;97838.38;;;9.15;100.00
49723;BME280;43484;43.608;1.458;2024-02-26T07:41:31;97828.16;;;9.18;100.00
49723;BME280;43484;43.608;1.458;2024-02-26T07:43:58;97843.47;;;9.18;100.00
49723;BME280;43484;43.608;1.458;2024-02-26T07:46:25;97846.06;;;9.24;100.00
49723;BME280;43484;43.608;1.458;2024-02-26T07:48:52;97854.56;;;9.17;100.00
49723;BME280;43484;43.608;1.458;2024-02-26T07:51:19;97872.47;;;9.29;100.00
49723;BME280;43484;43.608;1.458;2024-02-26T07:53:45;97875.03;;;9.26;100.00
49723;BME280;43484;43.608;1.458;2024-02-26T07:56:12;97885.25;;;9.33;100.00
49723;BME280;43484;43.608;1.458;2024-02-26T07:58:39;97925.31;;;9.39;100.00
49723;BME280;43484;43.608;1.458;2024-02-26T08:01:05;97928.72;;;9.41;100.00
49723;BME280;43484;43.608;1.458;2024-02-26T08:03:32;97938.09;;;9.43;100.00
49723;BME280;43484;43.608;1.458;2024-02-26T08:05:59;97938.97;;;9.48;100.00
49723;BME280;43484;43.608;1.458;2024-02-26T08:08:25;97931.28;;;9.45;100.00
49723;BME280;43484;43.608;1.458;2024-02-26T08:10:52;97948.38;;;9.51;100.00
49723;BME280;43484;43.608;1.458;2024-02-26T08:13:19;97956.03;;;9.57;100.00
49723;BME280;43484;43.608;1.458;2024-02-26T08:15:45;97975.66;;;9.62;100.00
49723;BME280;43484;43.608;1.458;2024-02-26T08:18:12;97984.16;;;9.58;100.00
49723;BME280;43484;43.608;1.458;2024-02-26T08:20:39;97973.94;;;9.55;100.00
49723;BME280;43484;43.608;1.458;2024-02-26T08:23:05;97985.88;;;9.62;100.00
49723;BME280;43484;43.608;1.458;2024-02-26T08:25:32;98003.78;;;9.73;100.00
49723;BME280;43484;43.608;1.458;2024-02-26T08:27:58;97997.84;;;9.78;100.00
49723;BME280;43484;43.608;1.458;2024-02-26T08:30:25;98005.53;;;9.77;100.00
49723;BME280;43484;43.608;1.458;2024-02-26T08:32:52;98009.78;;;9.76;100.00
49723;BME280;43484;43.608;1.458;2024-02-26T08:35:19;98017.50;;;9.85;100.00
49723;BME280;43484;43.608;1.458;2024-02-26T08:37:47;98036.25;;;9.93;100.00
49723;BME280;43484;43.608;1.458;2024-02-26T08:40:15;98040.53;;;9.97;100.00
49723;BME280;43484;43.608;1.458;2024-02-26T08:42:41;98053.34;;;10.02;100.00
49723;BME280;43484;43.608;1.458;2024-02-26T08:45:09;98052.47;;;10.01;100.00
49723;BME280;43484;43.608;1.458;2024-02-26T08:47:35;98043.09;;;9.96;100.00
49723;BME280;43484;43.608;1.458;2024-02-26T08:50:03;98061.00;;;10.02;100.00
49723;BME280;43484;43.608;1.458;2024-02-26T08:52:31;98061.91;;;10.13;100.00
49723;BME280;43484;43.608;1.458;2024-02-26T08:54:57;98073.03;;;10.18;100.00
49723;BME280;43484;43.608;1.458;2024-02-26T08:57:24;98073.88;;;10.16;100.00
49723;BME280;43484;43.608;1.458;2024-02-26T08:59:53;98075.56;;;10.17;100.00
49723;BME280;43484;43.608;1.458;2024-02-26T09:02:20;98067.91;;;10.12;100.00
49723;BME280;43484;43.608;1.458;2024-02-26T09:04:47;98084.13;;;10.23;100.00
49723;BME280;43484;43.608;1.458;2024-02-26T09:07:13;98097.81;;;10.31;100.00
49723;BME280;43484;43.608;1.458;2024-02-26T09:09:40;98094.41;;;10.34;100.00
49723;BME280;43484;43.608;1.458;2024-02-26T09:12:07;98095.25;;;10.30;100.00
49723;BME280;43484;43.608;1.458;2024-02-26T09:14:34;98100.38;;;10.37;100.00
49723;BME280;43484;43.608;1.458;2024-02-26T09:17:01;98092.72;;;10.45;100.00
49723;BME280;43484;43.608;1.458;2024-02-26T09:19:27;98118.34;;;10.64;100.00
49723;BME280;43484;43.608;1.458;2024-02-26T09:21:55;98127.75;;;10.77;100.00
49723;BME280;43484;43.608;1.458;2024-02-26T09:24:24;98132.03;;;10.81;100.00
49723;BME280;43484;43.608;1.458;2024-02-26T09:26:52;98149.13;;;10.88;100.00
49723;BME280;43484;43.608;1.458;2024-02-26T09:29:18;98157.69;;;10.95;100.00
49723;BME280;43484;43.608;1.458;2024-02-26T09:31:45;98157.66;;;10.92;100.00
49723;BME280;43484;43.608;1.458;2024-02-26T09:34:14;98172.19;;;10.93;100.00
49723;BME280;43484;43.608;1.458;2024-02-26T09:36:41;98159.38;;;10.88;100.00
49723;BME280;43484;43.608;1.458;2024-02-26T09:39:07;98158.53;;;10.85;100.00
49723;BME280;43484;43.608;1.458;2024-02-26T09:41:38;98156.81;;;11.00;100.00
49723;BME280;43484;43.608;1.458;2024-02-26T09:44:05;98161.06;;;10.92;100.00
49723;BME280;43484;43.608;1.458;2024-02-26T09:46:32;98158.50;;;10.92;100.00
49723;BME280;43484;43.608;1.458;2024-02-26T09:48:59;98149.97;;;10.92;100.00
49723;BME280;43484;43.608;1.458;2024-02-26T09:51:27;98143.16;;;10.98;100.00
49723;BME280;43484;43.608;1.458;2024-02-26T09:53:56;98159.38;;;10.99;100.00
49723;BME280;43484;43.608;1.458;2024-02-26T09:56:26;98160.22;;;11.05;100.00
49723;BME280;43484;43.608;1.458;2024-02-26T09:58:54;98153.41;;;11.16;100.00
49723;BME280;43484;43.608;1.458;2024-02-26T10:01:22;98155.97;;;11.28;100.00
49723;BME280;43484;43.608;1.458;2024-02-26T10:04:00;98163.66;;;11.39;100.00
49723;BME280;43484;43.608;1.458;2024-02-26T10:06:28;98159.38;;;11.55;100.00
49723;BME280;43484;43.608;1.458;2024-02-26T10:08:59;98170.47;;;11.46;100.00
49723;BME280;43484;43.608;1.458;2024-02-26T10:11:26;98156.78;;;11.62;100.00
49723;BME280;43484;43.608;1.458;2024-02-26T10:13:54;98162.78;;;11.66;100.00
49723;BME280;43484;43.608;1.458;2024-02-26T10:16:21;98149.97;;;11.73;100.00
49723;BME280;43484;43.608;1.458;2024-02-26T10:18:52;98151.66;;;11.85;100.00
49723;BME280;43484;43.608;1.458;2024-02-26T10:21:26;98154.22;;;11.77;100.00
49723;BME280;43484;43.608;1.458;2024-02-26T10:23:53;98152.50;;;11.78;100.00
49723;BME280;43484;43.608;1.458;2024-02-26T10:26:21;98158.53;;;11.68;100.00
49723;BME280;43484;43.608;1.458;2024-02-26T10:28:48;98162.78;;;11.66;100.00
49723;BME280;43484;43.608;1.458;2024-02-26T10:31:20;98173.03;;;11.51;100.00
49723;BME280;43484;43.608;1.458;2024-02-26T10:33:47;98167.03;;;11.62;100.00
49723;BME280;43484;43.608;1.458;2024-02-26T10:36:14;98169.66;;;11.67;100.00
49723;BME280;43484;43.608;1.458;2024-02-26T10:38:41;98164.47;;;11.77;100.00
49723;BME280;43484;43.608;1.458;2024-02-26T10:41:13;98167.06;;;11.82;100.00
49723;BME280;43484;43.608;1.458;2024-02-26T10:43:39;98164.47;;;11.77;100.00
49723;BME280;43484;43.608;1.458;2024-02-26T10:46:07;98149.94;;;11.87;100.00
49723;BME280;43484;43.608;1.458;2024-02-26T10:48:35;98142.22;;;11.90;100.00
49723;BME280;43484;43.608;1.458;2024-02-26T10:51:02;98147.34;;;11.99;100.00
49723;BME280;43484;43.608;1.458;2024-02-26T10:53:29;98137.06;;;11.93;100.00
49723;BME280;43484;43.608;1.458;2024-02-26T10:56:03;98149.91;;;11.99;100.00
49723;BME280;43484;43.608;1.458;2024-02-26T10:58:31;98139.63;;;12.00;100.00
49723;BME280;43484;43.608;1.458;2024-02-26T11:00:58;98143.03;;;12.05;100.00
49723;BME280;43484;43.608;1.458;2024-02-26T11:03:26;98134.38;;;12.24;100.00
49723;BME280;43484;43.608;1.458;2024-02-26T11:05:55;98138.63;;;12.31;100.00
49723;BME280;43484;43.608;1.458;2024-02-26T11:08:24;98152.28;;;12.39;100.00
49723;BME280;43484;43.608;1.458;2024-02-26T11:10:53;98149.69;;;12.41;100.00
49723;BME280;43484;43.608;1.458;2024-02-26T11:13:21;98143.72;;;12.42;100.00
49723;BME280;43484;43.608;1.458;2024-02-26T11:15:50;98156.50;;;12.55;100.00
49723;BME280;43484;43.608;1.458;2024-02-26T11:18:19;98138.41;;;12.72;100.00
49723;BME280;43484;43.608;1.458;2024-02-26T11:20:46;98153.00;;;12.62;100.00
49723;BME280;43484;43.608;1.458;2024-02-26T11:23:14;98148.69;;;12.74;100.00
49723;BME280;43484;43.608;1.458;2024-02-26T11:25:42;98133.28;;;12.72;100.00
49723;BME280;43484;43.608;1.458;2024-02-26T11:28:12;98141.00;;;12.71;100.00
49723;BME280;43484;43.608;1.458;2024-02-26T11:30:46;98138.34;;;12.86;100.00
49723;BME280;43484;43.608;1.458;2024-02-26T11:33:15;98129.69;;;12.91;100.00
49723;BME280;43484;43.608;1.458;2024-02-26T11:35:43;98138.25;;;12.93;100.00
49723;BME280;43484;43.608;1.458;2024-02-26T11:38:17;98145.09;;;13.02;100.00
49723;BME280;43484;43.608;1.458;2024-02-26T11:40:46;98117.69;;;12.93;100.00
49723;BME280;43484;43.608;1.458;2024-02-26T11:43:13;98129.75;;;12.85;100.00
49723;BME280;43484;43.608;1.458;2024-02-26T11:48:16;98138.28;;;12.90;100.00
49723;BME280;43484;43.608;1.458;2024-02-26T11:50:49;98134.94;;;12.79;100.00
49723;BME280;43484;43.608;1.458;2024-02-26T11:53:23;98122.94;;;12.80;100.00
49723;BME280;43484;43.608;1.458;2024-02-26T11:58:41;98112.53;;;13.02;100.00
49723;BME280;43484;43.608;1.458;2024-02-26T12:04:07;98101.50;;;12.85;100.00
49723;BME280;43484;43.608;1.458;2024-02-26T12:06:42;98100.59;;;12.92;100.00
49723;BME280;43484;43.608;1.458;2024-02-26T12:09:09;98091.16;;;12.90;100.00
49723;BME280;43484;43.608;1.458;2024-02-26T12:11:40;98088.66;;;12.84;100.00
49723;BME280;43484;43.608;1.458;2024-02-26T12:14:09;98086.94;;;12.83;100.00
49723;BME280;43484;43.608;1.458;2024-02-26T12:16:39;98087.06;;;12.69;100.00
49723;BME280;43484;43.608;1.458;2024-02-26T12:19:07;98084.41;;;12.77;100.00
49723;BME280;43484;43.608;1.458;2024-02-26T12:21:38;98067.38;;;12.65;100.00
49723;BME280;43484;43.608;1.458;2024-02-26T12:24:10;98073.38;;;12.61;100.00
49723;BME280;43484;43.608;1.458;2024-02-26T12:26:39;98068.19;;;12.72;100.00
49723;BME280;43484;43.608;1.458;2024-02-26T12:29:06;98068.03;;;12.94;100.00
49723;BME280;43484;43.608;1.458;2024-02-26T12:31:33;98057.69;;;13.02;100.00
49723;BME280;43484;43.608;1.458;2024-02-26T12:34:01;98059.38;;;13.07;100.00
49723;BME280;43484;43.608;1.458;2024-02-26T12:36:28;98068.84;;;12.99;100.00
49723;BME280;43484;43.608;1.458;2024-02-26T12:38:55;98057.63;;;13.11;100.00
49723;BME280;43484;43.608;1.458;2024-02-26T12:41:22;98054.25;;;13.04;100.00
49723;BME280;43484;43.608;1.458;2024-02-26T12:43:49;98066.09;;;13.20;100.00
49723;BME280;43484;43.608;1.458;2024-02-26T12:46:16;98054.06;;;13.25;100.00
49723;BME280;43484;43.608;1.458;2024-02-26T12:48:44;98045.38;;;13.35;100.00
49723;BME280;43484;43.608;1.458;2024-02-26T12:51:12;98039.25;;;13.47;100.00
49723;BME280;43484;43.608;1.458;2024-02-26T12:53:40;98040.31;;;13.26;100.00
49723;BME280;43484;43.608;1.458;2024-02-26T12:56:09;98035.22;;;13.23;100.00
49723;BME280;43484;43.608;1.458;2024-02-26T12:58:38;98033.41;;;13.34;100.00
49723;BME280;43484;43.608;1.458;2024-02-26T13:01:06;98035.16;;;13.31;100.00
49723;BME280;43484;43.608;1.458;2024-02-26T13:03:34;98036.22;;;13.09;100.00
49723;BME280;43484;43.608;1.458;2024-02-26T13:06:02;98028.25;;;13.31;100.00